sensor_id;sensor_type;location;lat;lon;timestamp;pressure;altitude;pressure_sealevel;temperature;humidity
6680;BME280;3376;42.664;23.346;2022-11-04T00:01:22;94681.97;;;12.45;80.70
6680;BME280;3376;42.664;23.346;2022-11-04T00:03:49;94680.00;;;12.47;80.44
6680;BME280;3376;42.664;23.346;2022-11-04T00:06:17;94677.16;;;12.42;80.50
6680;BME280;3376;42.664;23.346;2022-11-04T00:08:47;94674.03;;;12.32;80.94
6680;BME280;3376;42.664;23.346;2022-11-04T00:11:14;94674.50;;;12.21;81.75
6680;BME280;3376;42.664;23.346;2022-11-04T00:13:58;94674.66;;;12.20;81.59
6680;BME280;3376;42.664;23.346;2022-11-04T00:16:24;94680.41;;;12.15;81.59
6680;BME280;3376;42.664;23.346;2022-11-04T00:19:08;94636.00;;;11.81;82.30
6680;BME280;3376;42.664;23.346;2022-11-04T00:21:36;94685.94;;;12.12;82.17
6680;BME280;3376;42.664;23.346;2022-11-04T00:24:21;94659.72;;;12.07;81.92
6680;BME280;3376;42.664;23.346;2022-11-04T00:27:07;94678.09;;;12.20;82.43
6680;BME280;3376;42.664;23.346;2022-11-04T00:29:51;94676.75;;;12.10;82.21
6680;BME280;3376;42.664;23.346;2022-11-04T00:32:36;94672.66;;;11.86;83.18
6680;BME280;3376;42.664;23.346;2022-11-04T00:35:21;94615.31;;;11.44;83.13
6680;BME280;3376;42.664;23.346;2022-11-04T00:37:49;94668.50;;;11.92;82.89
6680;BME280;3376;42.664;23.346;2022-11-04T00:40:16;94666.00;;;11.83;83.26
6680;BME280;3376;42.664;23.346;2022-11-04T00:42:44;94666.63;;;11.86;83.74
6680;BME280;3376;42.664;23.346;2022-11-04T00:45:11;94667.34;;;11.94;83.62
6680;BME280;3376;42.664;23.346;2022-11-04T00:47:38;94665.03;;;11.99;82.68
6680;BME280;3376;42.664;23.346;2022-11-04T00:50:06;94661.63;;;11.84;83.53
6680;BME280;3376;42.664;23.346;2022-11-04T00:52:33;94656.88;;;11.73;83.81
6680;BME280;3376;42.664;23.346;2022-11-04T00:55:01;94655.41;;;11.56;84.84
6680;BME280;3376;42.664;23.346;2022-11-04T00:57:28;94650.75;;;11.51;85.98
6680;BME280;3376;42.664;23.346;2022-11-04T00:59:55;94642.94;;;11.37;87.48
6680;BME280;3376;42.664;23.346;2022-11-04T01:02:22;94637.41;;;11.40;87.67
6680;BME280;3376;42.664;23.346;2022-11-04T01:04:49;94651.09;;;11.48;87.32
6680;BME280;3376;42.664;23.346;2022-11-04T01:07:15;94640.56;;;11.50;86.50
6680;BME280;3376;42.664;23.346;2022-11-04T01:09:42;94645.63;;;11.43;86.33
6680;BME280;3376;42.664;23.346;2022-11-04T01:12:10;94636.22;;;11.28;87.06
6680;BME280;3376;42.664;23.346;2022-11-04T01:14:37;94485.66;;;10.34;87.29
6680;BME280;3376;42.664;23.346;2022-11-04T01:17:04;94585.94;;;11.00;87.72
6680;BME280;3376;42.664;23.346;2022-11-04T01:19:30;94631.41;;;11.25;86.92
6680;BME280;3376;42.664;23.346;2022-11-04T01:21:57;94636.53;;;11.33;87.70
6680;BME280;3376;42.664;23.346;2022-11-04T01:24:24;94624.63;;;11.24;88.44
6680;BME280;3376;42.664;23.346;2022-11-04T01:26:51;94601.97;;;11.03;88.08
6680;BME280;3376;42.664;23.346;2022-11-04T01:29:19;94615.88;;;11.02;89.28
6680;BME280;3376;42.664;23.346;2022-11-04T01:31:46;94587.81;;;10.91;89.87
6680;BME280;3376;42.664;23.346;2022-11-04T01:34:12;94622.06;;;11.01;89.88
6680;BME280;3376;42.664;23.346;2022-11-04T01:36:39;94625.19;;;10.97;89.70
6680;BME280;3376;42.664;23.346;2022-11-04T01:39:06;94612.34;;;10.81;90.28
6680;BME280;3376;42.664;23.346;2022-11-04T01:41:33;94573.69;;;10.56;90.19
6680;BME280;3376;42.664;23.346;2022-11-04T01:44:01;94609.31;;;10.77;90.60
6680;BME280;3376;42.664;23.346;2022-11-04T01:46:36;94621.00;;;10.73;90.79
6680;BME280;3376;42.664;23.346;2022-11-04T01:49:15;94603.81;;;10.57;90.79
6680;BME280;3376;42.664;23.346;2022-11-04T01:51:47;94619.28;;;10.65;91.33
6680;BME280;3376;42.664;23.346;2022-11-04T01:54:14;94569.16;;;10.36;91.28
6680;BME280;3376;42.664;23.346;2022-11-04T01:56:42;94609.50;;;10.53;92.35
6680;BME280;3376;42.664;23.346;2022-11-04T01:59:13;94610.22;;;10.61;92.62
6680;BME280;3376;42.664;23.346;2022-11-04T02:01:43;94616.41;;;10.60;92.37
6680;BME280;3376;42.664;23.346;2022-11-04T02:04:12;94590.22;;;10.55;92.79
6680;BME280;3376;42.664;23.346;2022-11-04T02:06:53;94597.91;;;10.63;92.59
6680;BME280;3376;42.664;23.346;2022-11-04T02:09:21;94605.22;;;10.60;92.59
6680;BME280;3376;42.664;23.346;2022-11-04T02:11:48;94598.63;;;10.57;92.51
6680;BME280;3376;42.664;23.346;2022-11-04T02:14:33;94601.22;;;10.57;92.36
6680;BME280;3376;42.664;23.346;2022-11-04T02:17:07;94589.75;;;10.52;92.58
6680;BME280;3376;42.664;23.346;2022-11-04T02:20:03;94583.22;;;10.56;92.69
6680;BME280;3376;42.664;23.346;2022-11-04T02:22:56;94564.91;;;10.43;92.39
6680;BME280;3376;42.664;23.346;2022-11-04T02:25:45;94592.53;;;10.50;92.63
6680;BME280;3376;42.664;23.346;2022-11-04T02:28:40;94597.53;;;10.52;93.28
6680;BME280;3376;42.664;23.346;2022-11-04T02:31:24;94591.47;;;10.59;92.42
6680;BME280;3376;42.664;23.346;2022-11-04T02:34:00;94584.13;;;10.48;92.79
6680;BME280;3376;42.664;23.346;2022-11-04T02:36:34;94594.19;;;10.43;93.70
6680;BME280;3376;42.664;23.346;2022-11-04T02:39:09;94584.59;;;10.52;93.36
6680;BME280;3376;42.664;23.346;2022-11-04T02:41:40;94579.97;;;10.39;93.00
6680;BME280;3376;42.664;23.346;2022-11-04T02:44:14;94592.63;;;10.34;93.45
6680;BME280;3376;42.664;23.346;2022-11-04T02:46:49;94565.34;;;10.24;95.00
6680;BME280;3376;42.664;23.346;2022-11-04T02:49:22;94585.50;;;10.36;93.60
6680;BME280;3376;42.664;23.346;2022-11-04T02:51:56;94580.31;;;10.36;94.14
6680;BME280;3376;42.664;23.346;2022-11-04T02:54:27;94592.16;;;10.31;93.36
6680;BME280;3376;42.664;23.346;2022-11-04T02:56:58;94314.75;;;8.47;94.23
6680;BME280;3376;42.664;23.346;2022-11-04T02:59:30;94591.66;;;10.13;94.45
6680;BME280;3376;42.664;23.346;2022-11-04T03:02:04;94586.28;;;10.14;94.38
6680;BME280;3376;42.664;23.346;2022-11-04T03:04:36;94583.69;;;10.06;95.57
6680;BME280;3376;42.664;23.346;2022-11-04T03:07:07;94586.63;;;10.03;94.57
6680;BME280;3376;42.664;23.346;2022-11-04T03:09:37;94587.63;;;10.02;96.56
6680;BME280;3376;42.664;23.346;2022-11-04T03:12:08;94584.44;;;9.92;96.54
6680;BME280;3376;42.664;23.346;2022-11-04T03:14:38;94579.66;;;9.81;97.86
6680;BME280;3376;42.664;23.346;2022-11-04T03:17:12;94583.50;;;9.85;98.01
6680;BME280;3376;42.664;23.346;2022-11-04T03:19:43;94575.41;;;9.88;95.89
6680;BME280;3376;42.664;23.346;2022-11-04T03:22:17;94573.19;;;9.77;97.25
6680;BME280;3376;42.664;23.346;2022-11-04T03:24:45;94580.94;;;9.85;97.47
6680;BME280;3376;42.664;23.346;2022-11-04T03:27:20;94559.00;;;9.65;98.13
6680;BME280;3376;42.664;23.346;2022-11-04T03:29:55;94583.16;;;9.88;99.18
6680;BME280;3376;42.664;23.346;2022-11-04T03:32:33;94585.47;;;9.83;98.53
6680;BME280;3376;42.664;23.346;2022-11-04T03:35:04;94579.00;;;9.79;98.07
6680;BME280;3376;42.664;23.346;2022-11-04T03:37:32;94580.13;;;9.85;98.15
6680;BME280;3376;42.664;23.346;2022-11-04T03:39:59;94583.94;;;9.66;97.57
6680;BME280;3376;42.664;23.346;2022-11-04T03:42:27;94572.94;;;9.64;98.62
6680;BME280;3376;42.664;23.346;2022-11-04T03:44:56;94582.16;;;9.67;99.73
6680;BME280;3376;42.664;23.346;2022-11-04T03:47:26;94583.50;;;9.55;99.17
6680;BME280;3376;42.664;23.346;2022-11-04T03:50:00;94527.19;;;9.26;100.00
6680;BME280;3376;42.664;23.346;2022-11-04T03:52:28;94560.13;;;9.32;99.84
6680;BME280;3376;42.664;23.346;2022-11-04T03:54:55;94523.66;;;9.19;99.89
6680;BME280;3376;42.664;23.346;2022-11-04T03:57:40;94586.94;;;9.39;100.00
6680;BME280;3376;42.664;23.346;2022-11-04T04:00:13;94576.59;;;9.31;100.00
6680;BME280;3376;42.664;23.346;2022-11-04T04:02:58;94559.50;;;9.30;100.00
6680;BME280;3376;42.664;23.346;2022-11-04T04:05:28;94573.66;;;9.42;100.00
6680;BME280;3376;42.664;23.346;2022-11-04T04:08:03;94565.28;;;9.40;100.00
6680;BME280;3376;42.664;23.346;2022-11-04T04:10:40;94576.09;;;9.43;100.00
6680;BME280;3376;42.664;23.346;2022-11-04T04:13:22;94569.16;;;9.44;100.00
6680;BME280;3376;42.664;23.346;2022-11-04T04:15:57;94539.81;;;9.21;100.00
6680;BME280;3376;42.664;23.346;2022-11-04T04:18:30;94565.31;;;9.24;100.00
6680;BME280;3376;42.664;23.346;2022-11-04T04:21:02;94562.38;;;9.35;100.00
6680;BME280;3376;42.664;23.346;2022-11-04T04:23:33;94569.78;;;9.46;100.00
6680;BME280;3376;42.664;23.346;2022-11-04T04:26:19;94574.50;;;9.34;100.00
6680;BME280;3376;42.664;23.346;2022-11-04T04:29:06;94563.50;;;9.32;100.00
6680;BME280;3376;42.664;23.346;2022-11-04T04:31:35;94563.38;;;9.34;100.00
6680;BME280;3376;42.664;23.346;2022-11-04T04:34:18;94565.28;;;9.40;100.00
6680;BME280;3376;42.664;23.346;2022-11-04T04:36:49;94567.22;;;9.46;100.00
6680;BME280;3376;42.664;23.346;2022-11-04T04:39:21;94550.28;;;9.27;99.97
6680;BME280;3376;42.664;23.346;2022-11-04T04:42:06;94575.47;;;9.33;100.00
6680;BME280;3376;42.664;23.346;2022-11-04T04:44:51;94532.06;;;9.21;100.00
6680;BME280;3376;42.664;23.346;2022-11-04T04:47:34;94551.47;;;9.17;100.00
6680;BME280;3376;42.664;23.346;2022-11-04T04:50:04;94571.31;;;9.16;100.00
6680;BME280;3376;42.664;23.346;2022-11-04T04:52:33;94560.84;;;9.10;100.00
6680;BME280;3376;42.664;23.346;2022-11-04T04:55:02;94569.06;;;9.21;100.00
6680;BME280;3376;42.664;23.346;2022-11-04T04:57:29;94573.72;;;9.26;100.00
6680;BME280;3376;42.664;23.346;2022-11-04T04:59:56;94574.50;;;9.34;100.00
6680;BME280;3376;42.664;23.346;2022-11-04T05:02:23;94552.56;;;9.30;99.81
6680;BME280;3376;42.664;23.346;2022-11-04T05:04:49;94562.41;;;9.27;99.27
6680;BME280;3376;42.664;23.346;2022-11-04T05:07:18;94561.47;;;9.20;100.00
6680;BME280;3376;42.664;23.346;2022-11-04T05:09:44;94594.69;;;9.31;99.88
6680;BME280;3376;42.664;23.346;2022-11-04T05:12:11;94577.63;;;9.22;100.00
6680;BME280;3376;42.664;23.346;2022-11-04T05:14:38;94569.38;;;9.10;100.00
6680;BME280;3376;42.664;23.346;2022-11-04T05:17:05;94577.97;;;9.03;100.00
6680;BME280;3376;42.664;23.346;2022-11-04T05:19:31;94575.72;;;9.08;100.00
6680;BME280;3376;42.664;23.346;2022-11-04T05:21:58;94570.47;;;9.24;100.00
6680;BME280;3376;42.664;23.346;2022-11-04T05:24:27;94573.03;;;9.40;100.00
6680;BME280;3376;42.664;23.346;2022-11-04T05:26:53;94576.88;;;9.52;99.53
6680;BME280;3376;42.664;23.346;2022-11-04T05:29:20;94564.63;;;9.46;100.00
6680;BME280;3376;42.664;23.346;2022-11-04T05:31:47;94584.22;;;9.71;100.00
6680;BME280;3376;42.664;23.346;2022-11-04T05:34:14;94575.81;;;9.69;100.00
6680;BME280;3376;42.664;23.346;2022-11-04T05:36:41;94589.00;;;9.90;99.58
6680;BME280;3376;42.664;23.346;2022-11-04T05:39:13;94596.56;;;9.92;97.53
6680;BME280;3376;42.664;23.346;2022-11-04T05:41:41;94604.41;;;10.06;96.92
6680;BME280;3376;42.664;23.346;2022-11-04T05:44:09;94598.72;;;10.19;96.91
6680;BME280;3376;42.664;23.346;2022-11-04T05:46:37;94578.28;;;10.24;96.24
6680;BME280;3376;42.664;23.346;2022-11-04T05:49:03;94596.06;;;10.49;95.34
6680;BME280;3376;42.664;23.346;2022-11-04T05:51:31;94609.84;;;10.73;95.77
6680;BME280;3376;42.664;23.346;2022-11-04T05:53:59;94591.91;;;10.86;94.10
6680;BME280;3376;42.664;23.346;2022-11-04T05:56:26;94592.69;;;11.09;93.18
6680;BME280;3376;42.664;23.346;2022-11-04T05:58:54;94611.41;;;11.48;91.23
6680;BME280;3376;42.664;23.346;2022-11-04T06:01:29;94613.91;;;11.85;88.13
6680;BME280;3376;42.664;23.346;2022-11-04T06:03:57;94594.41;;;11.89;87.64
6680;BME280;3376;42.664;23.346;2022-11-04T06:06:26;94617.13;;;12.37;84.98
6680;BME280;3376;42.664;23.346;2022-11-04T06:08:54;94620.66;;;12.72;83.40
6680;BME280;3376;42.664;23.346;2022-11-04T06:11:22;94630.97;;;13.29;80.00
6680;BME280;3376;42.664;23.346;2022-11-04T06:13:49;94494.41;;;13.12;76.76
6680;BME280;3376;42.664;23.346;2022-11-04T06:16:17;94610.56;;;14.41;74.57
6680;BME280;3376;42.664;23.346;2022-11-04T06:18:44;94626.31;;;15.00;73.17
6680;BME280;3376;42.664;23.346;2022-11-04T06:21:21;94596.44;;;15.22;70.70
6680;BME280;3376;42.664;23.346;2022-11-04T06:23:50;94615.78;;;15.98;70.24
6680;BME280;3376;42.664;23.346;2022-11-04T06:26:16;94622.69;;;16.81;66.23
6680;BME280;3376;42.664;23.346;2022-11-04T06:28:43;94620.50;;;17.58;62.11
6680;BME280;3376;42.664;23.346;2022-11-04T06:31:11;94635.66;;;18.17;60.25
6680;BME280;3376;42.664;23.346;2022-11-04T06:33:40;94622.94;;;18.68;59.14
6680;BME280;3376;42.664;23.346;2022-11-04T06:36:09;94374.75;;;17.48;58.12
6680;BME280;3376;42.664;23.346;2022-11-04T06:38:37;94581.66;;;19.85;53.85
6680;BME280;3376;42.664;23.346;2022-11-04T06:41:04;94606.06;;;20.72;50.69
6680;BME280;3376;42.664;23.346;2022-11-04T06:43:31;94620.13;;;21.06;50.21
6680;BME280;3376;42.664;23.346;2022-11-04T06:45:59;94593.19;;;21.15;48.57
6680;BME280;3376;42.664;23.346;2022-11-04T06:48:28;94630.31;;;21.96;47.94
6680;BME280;3376;42.664;23.346;2022-11-04T06:50:57;94631.78;;;22.26;45.94
6680;BME280;3376;42.664;23.346;2022-11-04T06:53:24;94629.88;;;22.43;45.04
6680;BME280;3376;42.664;23.346;2022-11-04T06:55:51;94617.16;;;22.40;45.14
6680;BME280;3376;42.664;23.346;2022-11-04T06:58:19;94621.59;;;22.77;44.63
6680;BME280;3376;42.664;23.346;2022-11-04T07:00:50;94629.44;;;23.20;42.94
6680;BME280;3376;42.664;23.346;2022-11-04T07:03:19;94611.88;;;23.31;41.82
6680;BME280;3376;42.664;23.346;2022-11-04T07:05:45;94610.25;;;23.30;42.74
6680;BME280;3376;42.664;23.346;2022-11-04T07:08:14;94616.88;;;23.64;41.40
6680;BME280;3376;42.664;23.346;2022-11-04T07:10:40;94610.06;;;23.73;41.43
6680;BME280;3376;42.664;23.346;2022-11-04T07:13:07;94600.66;;;23.87;41.82
6680;BME280;3376;42.664;23.346;2022-11-04T07:15:37;94618.00;;;24.67;41.59
6680;BME280;3376;42.664;23.346;2022-11-04T07:18:04;94584.13;;;24.74;39.51
6680;BME280;3376;42.664;23.346;2022-11-04T07:20:31;94453.91;;;24.15;38.46
6680;BME280;3376;42.664;23.346;2022-11-04T07:22:58;94595.66;;;25.34;38.13
6680;BME280;3376;42.664;23.346;2022-11-04T07:25:26;94603.88;;;25.33;38.22
6680;BME280;3376;42.664;23.346;2022-11-04T07:27:53;94604.19;;;25.46;37.34
6680;BME280;3376;42.664;23.346;2022-11-04T07:30:20;94605.75;;;25.37;36.98
6680;BME280;3376;42.664;23.346;2022-11-04T07:32:47;94597.53;;;25.49;37.78
6680;BME280;3376;42.664;23.346;2022-11-04T07:35:14;94602.31;;;25.72;36.69
6680;BME280;3376;42.664;23.346;2022-11-04T07:37:41;94589.59;;;25.69;36.79
6680;BME280;3376;42.664;23.346;2022-11-04T07:40:09;94380.31;;;24.32;36.54
6680;BME280;3376;42.664;23.346;2022-11-04T07:42:37;94557.72;;;25.34;37.02
6680;BME280;3376;42.664;23.346;2022-11-04T07:45:04;94575.78;;;25.72;38.14
6680;BME280;3376;42.664;23.346;2022-11-04T07:47:32;94584.75;;;25.96;36.90
6680;BME280;3376;42.664;23.346;2022-11-04T07:49:58;94598.56;;;26.13;37.21
6680;BME280;3376;42.664;23.346;2022-11-04T07:52:25;94464.88;;;25.49;36.19
6680;BME280;3376;42.664;23.346;2022-11-04T07:54:52;94587.81;;;26.43;35.57
6680;BME280;3376;42.664;23.346;2022-11-04T07:57:19;94564.53;;;26.25;35.71
6680;BME280;3376;42.664;23.346;2022-11-04T07:59:48;94586.25;;;26.42;35.50
6680;BME280;3376;42.664;23.346;2022-11-04T08:02:15;94574.00;;;26.41;35.42
6680;BME280;3376;42.664;23.346;2022-11-04T08:04:41;94586.94;;;26.73;34.87
6680;BME280;3376;42.664;23.346;2022-11-04T08:07:08;94576.16;;;26.98;34.79
6680;BME280;3376;42.664;23.346;2022-11-04T08:09:35;94584.47;;;26.87;34.43
6680;BME280;3376;42.664;23.346;2022-11-04T08:12:03;94582.25;;;27.04;34.26
6680;BME280;3376;42.664;23.346;2022-11-04T08:14:30;94562.00;;;27.08;33.80
6680;BME280;3376;42.664;23.346;2022-11-04T08:16:59;94565.00;;;27.40;33.21
6680;BME280;3376;42.664;23.346;2022-11-04T08:19:25;94561.97;;;27.51;33.07
6680;BME280;3376;42.664;23.346;2022-11-04T08:21:52;94555.06;;;27.50;33.19
6680;BME280;3376;42.664;23.346;2022-11-04T08:24:19;94560.16;;;27.47;33.06
6680;BME280;3376;42.664;23.346;2022-11-04T08:26:46;94551.47;;;27.31;33.42
6680;BME280;3376;42.664;23.346;2022-11-04T08:29:13;94547.75;;;27.27;35.26
6680;BME280;3376;42.664;23.346;2022-11-04T08:31:39;94556.34;;;27.58;33.01
6680;BME280;3376;42.664;23.346;2022-11-04T08:34:08;94557.13;;;27.87;32.21
6680;BME280;3376;42.664;23.346;2022-11-04T08:36:36;94522.75;;;27.91;32.07
6680;BME280;3376;42.664;23.346;2022-11-04T08:39:05;94543.78;;;28.39;31.69
6680;BME280;3376;42.664;23.346;2022-11-04T08:41:34;94519.31;;;28.56;31.17
6680;BME280;3376;42.664;23.346;2022-11-04T08:44:03;94545.38;;;29.01;31.25
6680;BME280;3376;42.664;23.346;2022-11-04T08:46:32;94416.56;;;28.26;30.61
6680;BME280;3376;42.664;23.346;2022-11-04T08:48:59;94516.69;;;28.74;30.71
6680;BME280;3376;42.664;23.346;2022-11-04T08:51:28;94540.13;;;28.77;31.05
6680;BME280;3376;42.664;23.346;2022-11-04T08:53:56;94531.25;;;29.01;31.01
6680;BME280;3376;42.664;23.346;2022-11-04T08:56:25;94512.50;;;28.87;30.79
6680;BME280;3376;42.664;23.346;2022-11-04T08:58:52;94523.91;;;28.92;31.28
6680;BME280;3376;42.664;23.346;2022-11-04T09:01:20;94535.22;;;29.22;30.47
6680;BME280;3376;42.664;23.346;2022-11-04T09:03:47;94538.66;;;29.41;30.45
6680;BME280;3376;42.664;23.346;2022-11-04T09:06:16;94539.34;;;29.33;30.49
6680;BME280;3376;42.664;23.346;2022-11-04T09:08:46;94366.56;;;28.00;30.88
6680;BME280;3376;42.664;23.346;2022-11-04T09:11:14;94508.97;;;28.92;31.41
6680;BME280;3376;42.664;23.346;2022-11-04T09:13:41;94513.72;;;28.95;30.88
6680;BME280;3376;42.664;23.346;2022-11-04T09:16:10;94395.38;;;28.16;30.59
6680;BME280;3376;42.664;23.346;2022-11-04T09:18:38;94509.59;;;29.02;30.14
6680;BME280;3376;42.664;23.346;2022-11-04T09:21:07;94503.84;;;28.76;29.85
6680;BME280;3376;42.664;23.346;2022-11-04T09:23:34;94499.53;;;28.80;30.35
6680;BME280;3376;42.664;23.346;2022-11-04T09:26:06;94501.97;;;28.96;30.66
6680;BME280;3376;42.664;23.346;2022-11-04T09:28:33;94502.41;;;29.03;30.13
6680;BME280;3376;42.664;23.346;2022-11-04T09:31:03;94480.50;;;28.68;30.13
6680;BME280;3376;42.664;23.346;2022-11-04T09:33:30;94480.81;;;28.01;31.29
6680;BME280;3376;42.664;23.346;2022-11-04T09:35:57;94488.13;;;27.62;32.13
6680;BME280;3376;42.664;23.346;2022-11-04T09:38:25;94488.91;;;27.91;32.24
6680;BME280;3376;42.664;23.346;2022-11-04T09:40:52;94473.50;;;28.12;31.58
6680;BME280;3376;42.664;23.346;2022-11-04T09:43:41;94478.34;;;27.81;32.11
6680;BME280;3376;42.664;23.346;2022-11-04T09:46:13;94481.22;;;27.61;32.85
6680;BME280;3376;42.664;23.346;2022-11-04T09:48:44;94464.56;;;27.74;32.12
6680;BME280;3376;42.664;23.346;2022-11-04T09:51:13;94463.25;;;27.48;32.14
6680;BME280;3376;42.664;23.346;2022-11-04T09:53:46;94439.69;;;27.36;32.27
6680;BME280;3376;42.664;23.346;2022-11-04T09:56:17;94442.22;;;27.75;31.62
6680;BME280;3376;42.664;23.346;2022-11-04T09:58:48;94441.34;;;27.79;31.57
6680;BME280;3376;42.664;23.346;2022-11-04T10:01:22;94430.56;;;28.13;31.25
6680;BME280;3376;42.664;23.346;2022-11-04T10:04:07;94421.25;;;28.34;31.31
6680;BME280;3376;42.664;23.346;2022-11-04T10:06:44;94426.22;;;28.59;30.62
6680;BME280;3376;42.664;23.346;2022-11-04T10:09:28;94420.19;;;28.72;30.26
6680;BME280;3376;42.664;23.346;2022-11-04T10:12:05;94392.22;;;28.33;30.67
6680;BME280;3376;42.664;23.346;2022-11-04T10:15:00;94410.88;;;28.14;31.11
6680;BME280;3376;42.664;23.346;2022-11-04T10:17:49;94410.94;;;27.62;32.63
6680;BME280;3376;42.664;23.346;2022-11-04T10:20:30;94411.22;;;27.37;32.93
6680;BME280;3376;42.664;23.346;2022-11-04T10:23:12;94342.13;;;26.64;33.44
6680;BME280;3376;42.664;23.346;2022-11-04T10:25:47;94402.84;;;26.86;34.25
6680;BME280;3376;42.664;23.346;2022-11-04T10:28:17;94396.34;;;27.02;33.64
6680;BME280;3376;42.664;23.346;2022-11-04T10:30:49;94392.59;;;27.03;33.88
6680;BME280;3376;42.664;23.346;2022-11-04T10:33:23;94374.69;;;26.85;33.98
6680;BME280;3376;42.664;23.346;2022-11-04T10:35:54;94375.16;;;26.53;34.37
6680;BME280;3376;42.664;23.346;2022-11-04T10:38:28;94357.31;;;26.59;33.97
6680;BME280;3376;42.664;23.346;2022-11-04T10:40:56;94349.69;;;27.15;33.31
6680;BME280;3376;42.664;23.346;2022-11-04T10:43:27;94350.97;;;27.46;33.11
6680;BME280;3376;42.664;23.346;2022-11-04T10:46:07;94341.88;;;27.23;32.98
6680;BME280;3376;42.664;23.346;2022-11-04T10:48:44;94342.53;;;27.39;32.58
6680;BME280;3376;42.664;23.346;2022-11-04T10:51:15;94349.69;;;27.15;32.46
6680;BME280;3376;42.664;23.346;2022-11-04T10:53:46;94331.16;;;27.33;32.36
6680;BME280;3376;42.664;23.346;2022-11-04T10:56:19;94271.63;;;27.48;31.34
6680;BME280;3376;42.664;23.346;2022-11-04T10:58:47;94327.28;;;27.68;31.00
6680;BME280;3376;42.664;23.346;2022-11-04T11:01:30;94323.75;;;27.72;31.17
6680;BME280;3376;42.664;23.346;2022-11-04T11:03:57;94315.09;;;27.80;31.28
6680;BME280;3376;42.664;23.346;2022-11-04T11:06:26;94294.38;;;27.59;31.68
6680;BME280;3376;42.664;23.346;2022-11-04T11:08:56;94307.03;;;27.67;31.45
6680;BME280;3376;42.664;23.346;2022-11-04T11:11:39;94170.88;;;26.76;31.68
6680;BME280;3376;42.664;23.346;2022-11-04T11:14:18;94295.88;;;27.65;32.02
6680;BME280;3376;42.664;23.346;2022-11-04T11:16:47;94286.22;;;27.50;31.59
6680;BME280;3376;42.664;23.346;2022-11-04T11:19:16;94259.94;;;27.20;31.34
6680;BME280;3376;42.664;23.346;2022-11-04T11:21:45;94259.47;;;27.42;31.57
6680;BME280;3376;42.664;23.346;2022-11-04T11:24:18;94285.75;;;27.86;32.00
6680;BME280;3376;42.664;23.346;2022-11-04T11:26:45;94275.66;;;28.20;31.37
6680;BME280;3376;42.664;23.346;2022-11-04T11:29:23;94272.16;;;28.24;30.96
6680;BME280;3376;42.664;23.346;2022-11-04T11:31:52;94263.97;;;28.02;30.81
6680;BME280;3376;42.664;23.346;2022-11-04T11:34:22;94255.25;;;27.97;30.55
6680;BME280;3376;42.664;23.346;2022-11-04T11:36:53;94234.47;;;27.99;30.93
6680;BME280;3376;42.664;23.346;2022-11-04T11:39:23;94242.66;;;28.02;30.64
6680;BME280;3376;42.664;23.346;2022-11-04T11:41:55;94231.72;;;27.85;32.35
6680;BME280;3376;42.664;23.346;2022-11-04T11:44:25;94200.69;;;27.38;32.80
6680;BME280;3376;42.664;23.346;2022-11-04T11:46:59;94211.75;;;27.27;31.93
6680;BME280;3376;42.664;23.346;2022-11-04T11:49:29;94232.56;;;27.20;31.86
6680;BME280;3376;42.664;23.346;2022-11-04T11:52:29;94201.81;;;26.38;32.94
6680;BME280;3376;42.664;23.346;2022-11-04T11:55:02;94218.53;;;26.38;32.99
6680;BME280;3376;42.664;23.346;2022-11-04T11:57:39;94211.66;;;26.37;33.57
6680;BME280;3376;42.664;23.346;2022-11-04T12:00:11;94177.16;;;25.99;33.72
6680;BME280;3376;42.664;23.346;2022-11-04T12:02:48;94196.41;;;25.42;36.82
6680;BME280;3376;42.664;23.346;2022-11-04T12:05:18;94189.69;;;25.11;36.23
6680;BME280;3376;42.664;23.346;2022-11-04T12:07:51;94187.69;;;24.78;36.61
6680;BME280;3376;42.664;23.346;2022-11-04T12:10:28;94184.31;;;24.52;35.97
6680;BME280;3376;42.664;23.346;2022-11-04T12:13:05;94171.41;;;24.20;36.69
6680;BME280;3376;42.664;23.346;2022-11-04T12:16:05;94195.50;;;24.14;37.17
6680;BME280;3376;42.664;23.346;2022-11-04T12:18:48;94193.38;;;23.96;37.97
6680;BME280;3376;42.664;23.346;2022-11-04T12:21:21;94192.84;;;23.94;38.17
6680;BME280;3376;42.664;23.346;2022-11-04T12:23:58;94182.81;;;23.81;38.31
6680;BME280;3376;42.664;23.346;2022-11-04T12:26:35;94179.91;;;23.72;38.67
6680;BME280;3376;42.664;23.346;2022-11-04T12:29:21;94178.28;;;23.61;39.03
6680;BME280;3376;42.664;23.346;2022-11-04T12:32:00;94189.63;;;23.47;39.20
6680;BME280;3376;42.664;23.346;2022-11-04T12:34:41;94194.41;;;23.45;39.79
6680;BME280;3376;42.664;23.346;2022-11-04T12:37:17;94178.00;;;23.38;39.26
6680;BME280;3376;42.664;23.346;2022-11-04T12:40:02;94182.44;;;23.22;39.50
6680;BME280;3376;42.664;23.346;2022-11-04T12:42:43;94154.13;;;23.12;39.84
6680;BME280;3376;42.664;23.346;2022-11-04T12:45:22;94125.81;;;22.88;39.90
6680;BME280;3376;42.664;23.346;2022-11-04T12:47:52;94158.09;;;23.10;40.35
6680;BME280;3376;42.664;23.346;2022-11-04T12:50:52;94152.78;;;22.95;40.63
6680;BME280;3376;42.664;23.346;2022-11-04T12:53:51;94153.81;;;22.89;40.80
6680;BME280;3376;42.664;23.346;2022-11-04T12:56:31;94160.41;;;22.86;40.91
6680;BME280;3376;42.664;23.346;2022-11-04T12:59:33;94146.13;;;22.77;41.45
6680;BME280;3376;42.664;23.346;2022-11-04T13:02:13;94161.66;;;22.64;41.25
6680;BME280;3376;42.664;23.346;2022-11-04T13:04:46;94161.63;;;22.59;41.52
6680;BME280;3376;42.664;23.346;2022-11-04T13:07:18;94156.78;;;22.51;41.81
6680;BME280;3376;42.664;23.346;2022-11-04T13:09:48;94133.97;;;22.20;42.04
6680;BME280;3376;42.664;23.346;2022-11-04T13:12:20;94136.06;;;22.17;42.48
6680;BME280;3376;42.664;23.346;2022-11-04T13:14:50;94144.44;;;22.09;42.88
6680;BME280;3376;42.664;23.346;2022-11-04T13:17:23;94108.81;;;21.70;43.24
6680;BME280;3376;42.664;23.346;2022-11-04T13:19:54;94150.88;;;21.82;44.00
6680;BME280;3376;42.664;23.346;2022-11-04T13:22:27;94130.94;;;21.64;44.34
6680;BME280;3376;42.664;23.346;2022-11-04T13:25:00;94159.38;;;21.62;44.55
6680;BME280;3376;42.664;23.346;2022-11-04T13:27:32;94021.53;;;20.67;44.38
6680;BME280;3376;42.664;23.346;2022-11-04T13:30:05;94165.84;;;21.50;45.22
6680;BME280;3376;42.664;23.346;2022-11-04T13:32:36;94142.28;;;21.65;46.07
6680;BME280;3376;42.664;23.346;2022-11-04T13:35:09;94148.69;;;22.10;45.64
6680;BME280;3376;42.664;23.346;2022-11-04T13:37:45;94133.75;;;22.31;43.88